Time;durP1;ratioP1;P1;durP2;ratioP2;P2;SDS_P1;SDS_P2;PMS_P1;PMS_P2;Temp;Humidity;BMP_temperature;BMP_pressure;BME280_temperature;BME280_humidity;BME280_pressure;Samples;Min_cycle;Max_cycle;Signal;HPM_P1;HPM_P2
2022/03/31 00:02:51;;;;;;;;;;;;;;;3.23;74.00;96772.00;6321315;28;19919;-64
2022/03/31 00:05:55;;;;;;;;;;;;;;;3.18;73.43;96776.56;6322060;28;20030;-64
2022/03/31 00:08:56;;;;;;;;;;;;;;;3.27;73.72;96771.84;6320397;28;19937;-64
2022/03/31 00:11:59;;;;;;;;;;;;;;;3.25;73.64;96772.81;6321365;28;19926;-64
2022/03/31 00:15:03;;;;;;;;;;;;;;;3.28;74.01;96776.13;6321789;28;20336;-64
2022/03/31 00:18:05;;;;;;;;;;;;;;;3.31;74.01;96775.19;6320859;28;20411;-63
2022/03/31 00:21:06;;;;;;;;;;;;;;;3.36;73.83;96770.66;6320028;28;19920;-64
2022/03/31 00:24:08;;;;;;;;;;;;;;;3.19;74.53;96775.66;6320757;28;19920;-63
2022/03/31 00:27:12;;;;;;;;;;;;;;;3.27;74.93;96776.22;6321535;28;19919;-62
2022/03/31 00:30:13;;;;;;;;;;;;;;;3.30;75.00;96781.28;6321023;28;19985;-64
2022/03/31 00:33:15;;;;;;;;;;;;;;;3.28;75.34;96781.34;6320968;28;19920;-64
2022/03/31 00:36:16;;;;;;;;;;;;;;;3.39;75.23;96778.34;6320662;28;19926;-63
2022/03/31 00:39:29;;;;;;;;;;;;;;;3.25;75.17;96780.63;6320665;28;20285;-62
2022/03/31 00:42:31;;;;;;;;;;;;;;;3.28;75.00;96770.94;6320946;28;20365;-64
2022/03/31 00:45:46;;;;;;;;;;;;;;;3.32;74.27;96782.09;6321026;28;20389;-64
2022/03/31 00:48:48;;;;;;;;;;;;;;;3.34;74.18;96772.47;6319802;28;20374;-64
2022/03/31 00:51:50;;;;;;;;;;;;;;;3.24;74.69;96776.31;6320343;28;19927;-64
2022/03/31 00:54:56;;;;;;;;;;;;;;;3.28;74.20;96767.50;6320678;28;20327;-64
2022/03/31 00:57:58;;;;;;;;;;;;;;;3.39;74.67;96770.53;6320840;28;19927;-63
2022/03/31 01:01:03;;;;;;;;;;;;;;;3.34;74.78;96769.84;6320983;28;19920;-63
2022/03/31 01:04:07;;;;;;;;;;;;;;;3.30;75.32;96765.69;6320700;28;20377;-63
2022/03/31 01:07:08;;;;;;;;;;;;;;;3.51;75.29;96777.91;6320568;28;20400;-64
2022/03/31 01:10:11;;;;;;;;;;;;;;;3.43;75.60;96772.13;6320612;28;19920;-65
2022/03/31 01:13:15;;;;;;;;;;;;;;;3.45;75.26;96775.50;6320242;28;19920;-64
2022/03/31 01:16:18;;;;;;;;;;;;;;;3.23;75.90;96779.81;6320860;28;19920;-64
2022/03/31 01:19:19;;;;;;;;;;;;;;;3.12;76.23;96786.28;6321284;28;20014;-63
2022/03/31 01:22:28;;;;;;;;;;;;;;;2.98;76.51;96778.13;6325913;28;19920;-63
2022/03/31 01:25:31;;;;;;;;;;;;;;;2.99;76.90;96782.41;6325018;28;20095;-63
2022/03/31 01:28:34;;;;;;;;;;;;;;;3.08;76.54;96776.03;6325410;28;19920;-64
2022/03/31 01:31:37;;;;;;;;;;;;;;;2.85;76.91;96779.47;6324483;28;19919;-64
2022/03/31 01:34:41;;;;;;;;;;;;;;;2.69;77.08;96774.81;6324959;28;20305;-64
2022/03/31 01:37:45;;;;;;;;;;;;;;;2.71;77.58;96769.56;6324601;28;20016;-64
2022/03/31 01:40:46;;;;;;;;;;;;;;;2.73;77.37;96772.97;6324818;28;19935;-65
2022/03/31 01:43:47;;;;;;;;;;;;;;;2.80;77.35;96770.97;6324487;28;19924;-64
2022/03/31 01:46:48;;;;;;;;;;;;;;;2.87;77.09;96772.47;6324849;28;19963;-64
2022/03/31 01:49:49;;;;;;;;;;;;;;;2.83;77.21;96765.66;6324740;28;20395;-64
2022/03/31 01:52:51;;;;;;;;;;;;;;;2.83;76.72;96776.06;6324673;28;19919;-64
2022/03/31 01:55:55;;;;;;;;;;;;;;;2.67;77.42;96776.63;6324997;28;19931;-66
2022/03/31 01:58:56;;;;;;;;;;;;;;;2.62;77.69;96768.13;6324262;28;19967;-64
2022/03/31 02:01:57;;;;;;;;;;;;;;;2.76;76.69;96769.41;6324610;28;19916;-63
2022/03/31 02:05:00;;;;;;;;;;;;;;;2.65;77.84;96773.22;6324830;28;19920;-64
2022/03/31 02:08:04;;;;;;;;;;;;;;;2.70;77.24;96771.31;6323919;28;19926;-64
2022/03/31 02:11:08;;;;;;;;;;;;;;;2.49;77.93;96774.66;6324361;28;19926;-63
2022/03/31 02:14:14;;;;;;;;;;;;;;;2.50;77.61;96776.38;6324114;28;19927;-63
2022/03/31 02:17:15;;;;;;;;;;;;;;;2.50;77.92;96778.97;6324024;28;19935;-64
2022/03/31 02:20:18;;;;;;;;;;;;;;;2.61;77.61;96763.84;6323512;28;20041;-64
2022/03/31 02:23:24;;;;;;;;;;;;;;;2.60;77.96;96784.69;6324229;28;19920;-63
2022/03/31 02:26:28;;;;;;;;;;;;;;;2.51;78.03;96778.06;6324187;28;20381;-63
2022/03/31 02:29:29;;;;;;;;;;;;;;;2.63;77.12;96775.06;6323961;28;19970;-64
2022/03/31 02:32:31;;;;;;;;;;;;;;;2.67;76.64;96781.81;6322894;28;19920;-64
2022/03/31 02:35:32;;;;;;;;;;;;;;;2.61;76.62;96776.84;6323306;28;20487;-64
2022/03/31 02:38:36;;;;;;;;;;;;;;;2.53;77.24;96778.84;6323823;28;20362;-63
2022/03/31 02:41:40;;;;;;;;;;;;;;;2.48;77.39;96771.22;6323819;28;19920;-64
2022/03/31 02:44:41;;;;;;;;;;;;;;;2.49;77.33;96777.25;6322884;28;19926;-64
2022/03/31 02:47:44;;;;;;;;;;;;;;;2.47;77.59;96779.06;6323747;28;20397;-64
2022/03/31 02:50:45;;;;;;;;;;;;;;;2.51;77.10;96775.44;6323713;28;20313;-63
2022/03/31 02:57:11;;;;;;;;;;;;;;;2.56;77.03;96783.94;6322886;28;19920;-64
2022/03/31 03:00:15;;;;;;;;;;;;;;;2.51;77.43;96780.66;6323721;28;19943;-64
2022/03/31 03:03:21;;;;;;;;;;;;;;;2.64;77.35;96766.34;6322869;28;19920;-64
2022/03/31 03:06:22;;;;;;;;;;;;;;;2.65;77.25;96768.03;6322825;28;19924;-64
2022/03/31 03:09:29;;;;;;;;;;;;;;;2.65;77.03;96775.81;6323093;28;20297;-64
2022/03/31 03:12:32;;;;;;;;;;;;;;;2.61;77.06;96768.22;6322208;28;19941;-64
2022/03/31 03:15:33;;;;;;;;;;;;;;;2.65;77.62;96773.22;6322348;28;19916;-65
2022/03/31 03:18:35;;;;;;;;;;;;;;;2.75;76.85;96763.38;6322226;28;19920;-64
2022/03/31 03:21:36;;;;;;;;;;;;;;;2.88;77.07;96776.75;6322460;28;20309;-64
2022/03/31 03:24:37;;;;;;;;;;;;;;;2.85;76.79;96771.66;6321934;28;19920;-64
2022/03/31 03:27:39;;;;;;;;;;;;;;;2.84;76.50;96773.44;6322521;28;20455;-64
2022/03/31 03:30:42;;;;;;;;;;;;;;;2.81;76.55;96773.53;6321340;28;19916;-64
2022/03/31 03:33:44;;;;;;;;;;;;;;;2.87;76.41;96772.47;6322161;28;20273;-64
2022/03/31 03:36:47;;;;;;;;;;;;;;;2.90;76.54;96769.75;6322481;28;19919;-64
2022/03/31 03:39:49;;;;;;;;;;;;;;;2.98;75.49;96762.53;6322053;28;19923;-63
2022/03/31 03:42:54;;;;;;;;;;;;;;;3.03;75.57;96765.81;6321280;28;19916;-63
2022/03/31 03:45:55;;;;;;;;;;;;;;;3.09;75.22;96767.34;6321650;28;19924;-64
2022/03/31 03:48:56;;;;;;;;;;;;;;;3.07;74.50;96762.19;6321669;28;20305;-63
2022/03/31 03:52:01;;;;;;;;;;;;;;;3.10;74.58;96764.69;6322250;28;19920;-63
2022/03/31 03:55:02;;;;;;;;;;;;;;;3.04;74.47;96754.50;6321602;28;20420;-64
2022/03/31 03:58:04;;;;;;;;;;;;;;;3.05;74.58;96751.00;6321147;28;20022;-64
2022/03/31 04:01:05;;;;;;;;;;;;;;;3.13;73.84;96754.16;6321517;28;20458;-64
2022/03/31 04:04:06;;;;;;;;;;;;;;;3.26;73.39;96758.94;6321668;28;19920;-65
2022/03/31 04:07:07;;;;;;;;;;;;;;;3.24;73.19;96750.31;6321047;28;19919;-64
2022/03/31 04:10:11;;;;;;;;;;;;;;;3.17;73.39;96770.53;6321593;28;19915;-64
2022/03/31 04:13:12;;;;;;;;;;;;;;;3.09;73.55;96757.78;6320536;28;20305;-63
2022/03/31 04:16:15;;;;;;;;;;;;;;;3.31;73.00;96762.16;6319531;28;19920;-65
2022/03/31 04:19:17;;;;;;;;;;;;;;;3.18;73.37;96763.56;6320689;28;19923;-64
2022/03/31 04:22:18;;;;;;;;;;;;;;;3.35;72.81;96763.78;6320126;28;19920;-64
2022/03/31 04:25:23;;;;;;;;;;;;;;;3.20;72.85;96766.94;6320658;28;20452;-64
2022/03/31 04:28:27;;;;;;;;;;;;;;;3.25;72.91;96772.81;6321042;28;20444;-65
2022/03/31 04:31:32;;;;;;;;;;;;;;;3.24;72.98;96766.78;6321010;28;19920;-64
2022/03/31 04:34:34;;;;;;;;;;;;;;;3.15;73.50;96757.56;6320354;28;19919;-64
2022/03/31 04:37:35;;;;;;;;;;;;;;;3.29;73.04;96754.44;6320647;28;19927;-64
2022/03/31 04:40:36;;;;;;;;;;;;;;;3.35;72.60;96745.56;6320270;28;19924;-64
2022/03/31 04:43:39;;;;;;;;;;;;;;;3.27;72.80;96750.22;6320725;28;19926;-64
2022/03/31 04:46:40;;;;;;;;;;;;;;;3.40;72.40;96751.44;6320458;28;19920;-63
2022/03/31 04:49:41;;;;;;;;;;;;;;;3.41;72.83;96747.94;6320738;28;20300;-64
2022/03/31 04:52:42;;;;;;;;;;;;;;;3.58;72.05;96748.13;6320236;28;19919;-64
2022/03/31 04:55:44;;;;;;;;;;;;;;;3.70;71.75;96738.13;6319683;28;19982;-64
2022/03/31 04:58:45;;;;;;;;;;;;;;;3.70;71.40;96740.75;6320141;28;19926;-64
2022/03/31 05:01:48;;;;;;;;;;;;;;;3.77;71.50;96731.78;6319467;28;19919;-65
2022/03/31 05:04:52;;;;;;;;;;;;;;;3.79;71.28;96732.56;6320300;28;19920;-65
2022/03/31 05:07:53;;;;;;;;;;;;;;;4.03;70.78;96739.38;6319880;28;19931;-65
2022/03/31 05:10:56;;;;;;;;;;;;;;;4.03;70.97;96736.78;6320380;28;19920;-64
2022/03/31 05:13:59;;;;;;;;;;;;;;;4.13;70.64;96742.44;6320266;28;20014;-64
2022/03/31 05:17:03;;;;;;;;;;;;;;;4.31;70.08;96738.25;6320415;28;19919;-63
2022/03/31 05:20:08;;;;;;;;;;;;;;;4.38;70.22;96726.63;6318008;28;19927;-64
2022/03/31 05:23:12;;;;;;;;;;;;;;;4.66;69.12;96738.47;6319748;28;19920;-64
2022/03/31 05:26:13;;;;;;;;;;;;;;;4.88;68.54;96731.41;6319171;28;19924;-64
2022/03/31 05:29:18;;;;;;;;;;;;;;;4.86;68.51;96738.44;6319879;28;19923;-65
2022/03/31 05:32:20;;;;;;;;;;;;;;;5.08;68.19;96734.91;6319619;28;19920;-64
2022/03/31 05:35:23;;;;;;;;;;;;;;;5.17;67.74;96734.47;6319043;28;19920;-64
2022/03/31 05:38:27;;;;;;;;;;;;;;;5.27;67.37;96738.38;6319895;28;20386;-64
2022/03/31 05:41:30;;;;;;;;;;;;;;;5.37;67.07;96731.78;6318869;28;19989;-64
2022/03/31 05:44:32;;;;;;;;;;;;;;;5.46;66.49;96737.50;6319729;28;19919;-65
2022/03/31 05:47:35;;;;;;;;;;;;;;;5.47;66.41;96728.78;6319637;28;20377;-64
2022/03/31 05:50:42;;;;;;;;;;;;;;;5.39;67.01;96747.38;6320301;28;19923;-64
2022/03/31 05:53:43;;;;;;;;;;;;;;;5.28;67.41;96750.47;6318601;28;19926;-64
2022/03/31 05:56:44;;;;;;;;;;;;;;;5.55;66.51;96742.31;6319638;28;19922;-64
2022/03/31 05:59:48;;;;;;;;;;;;;;;5.54;66.33;96736.22;6318755;28;19920;-64
2022/03/31 06:02:50;;;;;;;;;;;;;;;5.70;66.05;96743.34;6319261;28;19927;-64
2022/03/31 06:05:52;;;;;;;;;;;;;;;5.57;66.50;96740.44;6319826;28;20388;-64
2022/03/31 06:08:55;;;;;;;;;;;;;;;5.43;66.48;96737.63;6324601;28;19920;-64
2022/03/31 06:11:56;;;;;;;;;;;;;;;5.32;67.73;96746.81;6324504;28;19922;-64
2022/03/31 06:14:57;;;;;;;;;;;;;;;5.33;67.85;96740.69;6323043;28;19920;-64
2022/03/31 06:17:58;;;;;;;;;;;;;;;5.27;67.94;96748.78;6323539;28;19926;-64
2022/03/31 06:21:00;;;;;;;;;;;;;;;5.28;68.09;96754.84;6324632;28;19916;-65
2022/03/31 06:24:03;;;;;;;;;;;;;;;5.39;68.08;96752.59;6324325;28;19924;-64
2022/03/31 06:27:06;;;;;;;;;;;;;;;5.47;68.20;96750.47;6323600;28;19920;-63
2022/03/31 06:30:09;;;;;;;;;;;;;;;5.76;67.23;96746.50;6323996;28;19924;-64
2022/03/31 06:33:14;;;;;;;;;;;;;;;6.01;65.83;96755.81;6323836;28;19920;-64
2022/03/31 06:36:15;;;;;;;;;;;;;;;6.13;64.91;96759.59;6323827;28;19927;-64
2022/03/31 06:39:16;;;;;;;;;;;;;;;5.94;64.92;96764.84;6323786;28;19924;-64
2022/03/31 06:42:17;;;;;;;;;;;;;;;5.56;65.73;96754.44;6322521;28;19923;-65
2022/03/31 06:45:23;;;;;;;;;;;;;;;5.29;66.86;96762.59;6322414;28;19920;-64
2022/03/31 06:48:26;;;;;;;;;;;;;;;5.01;67.83;96764.75;6323357;28;19920;-65
2022/03/31 06:51:31;;;;;;;;;;;;;;;4.91;68.00;96769.53;6323630;28;19920;-64
2022/03/31 06:54:33;;;;;;;;;;;;;;;4.80;68.93;96774.38;6323154;28;19919;-65
2022/03/31 06:57:33;;;;;;;;;;;;;;;4.69;69.57;96762.66;6322962;28;19920;-64
2022/03/31 07:00:37;;;;;;;;;;;;;;;4.60;69.88;96757.00;6323446;28;19920;-64
2022/03/31 07:03:38;;;;;;;;;;;;;;;4.60;70.14;96751.78;6322574;28;19920;-64
2022/03/31 07:06:42;;;;;;;;;;;;;;;4.72;70.08;96764.28;6323317;28;19923;-64
2022/03/31 07:09:43;;;;;;;;;;;;;;;4.73;69.75;96752.97;6323313;28;20328;-64
2022/03/31 07:12:49;;;;;;;;;;;;;;;4.79;69.85;96754.44;6323182;28;19924;-64
2022/03/31 07:15:56;;;;;;;;;;;;;;;4.87;70.00;96761.03;6323130;28;19920;-65
2022/03/31 07:18:58;;;;;;;;;;;;;;;5.09;69.05;96757.44;6322415;28;19968;-64
2022/03/31 07:22:00;;;;;;;;;;;;;;;5.01;69.49;96764.75;6322609;28;19927;-65
2022/03/31 07:25:01;;;;;;;;;;;;;;;5.00;69.31;96763.06;6322027;28;19920;-64
2022/03/31 07:28:02;;;;;;;;;;;;;;;4.85;69.42;96757.63;6322131;28;20040;-63
2022/03/31 07:31:06;;;;;;;;;;;;;;;4.87;69.43;96758.41;6321245;28;19924;-64
2022/03/31 07:34:09;;;;;;;;;;;;;;;4.95;69.08;96766.75;6322528;28;20251;-65
2022/03/31 07:37:10;;;;;;;;;;;;;;;4.91;69.52;96767.78;6321852;28;19935;-63
2022/03/31 07:40:12;;;;;;;;;;;;;;;5.14;68.73;96773.72;6321807;28;19919;-64
2022/03/31 07:43:14;;;;;;;;;;;;;;;5.31;68.32;96757.31;6321604;28;20419;-64
2022/03/31 07:46:18;;;;;;;;;;;;;;;5.44;67.52;96760.22;6322358;28;19926;-64
2022/03/31 07:49:19;;;;;;;;;;;;;;;5.60;66.47;96755.97;6322117;28;20009;-64
2022/03/31 07:52:21;;;;;;;;;;;;;;;5.65;66.77;96758.38;6322227;28;20018;-65
2022/03/31 07:55:23;;;;;;;;;;;;;;;5.68;66.60;96766.06;6322191;28;19920;-65
2022/03/31 07:58:25;;;;;;;;;;;;;;;5.77;66.06;96761.22;6321840;28;20014;-64
2022/03/31 08:01:28;;;;;;;;;;;;;;;5.67;66.20;96760.00;6322204;28;19919;-65
2022/03/31 08:04:29;;;;;;;;;;;;;;;5.47;66.75;96758.31;6321230;28;20019;-64
2022/03/31 08:07:30;;;;;;;;;;;;;;;5.35;67.60;96751.91;6321459;28;19927;-64
2022/03/31 08:10:34;;;;;;;;;;;;;;;5.44;67.29;96739.34;6321373;28;19924;-64
2022/03/31 08:13:38;;;;;;;;;;;;;;;5.66;66.79;96739.16;6321422;28;19920;-64
2022/03/31 08:16:41;;;;;;;;;;;;;;;5.67;66.33;96733.88;6321520;28;19920;-63
2022/03/31 08:19:43;;;;;;;;;;;;;;;5.94;65.79;96743.94;6319160;28;20404;-64
2022/03/31 08:22:44;;;;;;;;;;;;;;;6.18;64.88;96732.31;6320659;28;20413;-63
2022/03/31 08:25:46;;;;;;;;;;;;;;;6.25;64.00;96744.13;6320411;28;19924;-64
2022/03/31 08:28:47;;;;;;;;;;;;;;;5.99;64.22;96731.50;6319956;28;19924;-64
2022/03/31 08:31:48;;;;;;;;;;;;;;;5.88;65.01;96733.78;6320501;28;19935;-64
2022/03/31 08:34:52;;;;;;;;;;;;;;;5.81;65.18;96744.53;6320330;28;20026;-65
2022/03/31 08:37:56;;;;;;;;;;;;;;;5.72;65.22;96739.75;6321176;28;20419;-64
2022/03/31 08:41:02;;;;;;;;;;;;;;;5.68;65.25;96748.63;6320981;28;19965;-67
2022/03/31 08:44:03;;;;;;;;;;;;;;;5.52;66.02;96734.59;6320119;28;20297;-63
2022/03/31 08:47:09;;;;;;;;;;;;;;;5.58;65.64;96752.59;6320629;28;19920;-64
2022/03/31 08:50:11;;;;;;;;;;;;;;;5.41;66.67;96745.56;6320485;28;19926;-64
2022/03/31 08:53:14;;;;;;;;;;;;;;;5.38;66.52;96738.72;6321000;28;20432;-63
2022/03/31 08:56:21;;;;;;;;;;;;;;;5.47;66.28;96740.03;6320721;28;19950;-65
2022/03/31 08:59:25;;;;;;;;;;;;;;;5.39;66.79;96737.78;6320693;28;19923;-64
2022/03/31 09:02:27;;;;;;;;;;;;;;;5.33;66.99;96732.84;6320658;28;20294;-64
2022/03/31 09:05:34;;;;;;;;;;;;;;;5.23;67.66;96741.16;6319828;28;19959;-64
2022/03/31 09:08:38;;;;;;;;;;;;;;;5.31;67.52;96741.66;6320466;28;19920;-63
2022/03/31 09:11:45;;;;;;;;;;;;;;;5.21;67.77;96749.09;6320810;28;19920;-64
2022/03/31 09:14:49;;;;;;;;;;;;;;;5.37;67.75;96721.34;6320679;28;19926;-64
2022/03/31 09:17:54;;;;;;;;;;;;;;;5.74;66.72;96722.22;6320500;28;20366;-65
2022/03/31 09:20:57;;;;;;;;;;;;;;;5.83;65.86;96715.69;6319969;28;19920;-64
2022/03/31 09:24:02;;;;;;;;;;;;;;;5.93;66.19;96718.72;6320282;28;19920;-64
2022/03/31 09:27:04;;;;;;;;;;;;;;;6.23;65.48;96721.63;6320023;28;19920;-64
2022/03/31 09:30:08;;;;;;;;;;;;;;;6.16;65.22;96726.31;6320454;28;19920;-64
2022/03/31 09:33:09;;;;;;;;;;;;;;;6.12;65.34;96723.94;6320029;28;20301;-64
2022/03/31 09:36:21;;;;;;;;;;;;;;;5.94;66.66;96712.59;6320152;28;19920;-65
2022/03/31 09:39:23;;;;;;;;;;;;;;;6.06;66.35;96717.25;6320275;28;19927;-64
2022/03/31 09:42:29;;;;;;;;;;;;;;;6.53;65.89;96711.38;6323459;28;19926;-64
2022/03/31 09:45:38;;;;;;;;;;;;;;;7.19;63.77;96710.56;6325043;28;19920;-64
2022/03/31 09:48:43;;;;;;;;;;;;;;;7.91;61.57;96706.53;6324553;28;19989;-65
2022/03/31 09:51:51;;;;;;;;;;;;;;;8.39;59.54;96712.53;6324285;28;19920;-64
2022/03/31 09:54:52;;;;;;;;;;;;;;;8.51;58.97;96714.44;6324926;28;20395;-64
2022/03/31 09:57:55;;;;;;;;;;;;;;;8.52;58.83;96717.91;6324899;28;20286;-64
2022/03/31 10:00:56;;;;;;;;;;;;;;;8.50;58.58;96712.75;6324864;28;19920;-64
2022/03/31 10:04:01;;;;;;;;;;;;;;;8.61;58.49;96729.66;6324971;28;20024;-65
2022/03/31 10:07:03;;;;;;;;;;;;;;;8.71;57.99;96736.00;6324068;28;20471;-65
2022/03/31 10:10:08;;;;;;;;;;;;;;;8.45;58.53;96720.03;6324757;28;20534;-64
2022/03/31 10:13:26;;;;;;;;;;;;;;;8.10;59.88;96715.06;6324587;28;19926;-63
2022/03/31 10:16:55;;;;;;;;;;;;;;;7.93;60.58;96715.19;6324577;28;20010;-64
2022/03/31 10:20:09;;;;;;;;;;;;;;;7.56;61.67;96729.50;6293300;28;19924;-64
2022/03/31 10:26:38;;;;;;;;;;;;;;;7.40;62.70;96743.41;6323502;28;20014;-64
2022/03/31 10:29:40;;;;;;;;;;;;;;;7.48;62.96;96735.13;6322882;28;20011;-64
2022/03/31 10:32:52;;;;;;;;;;;;;;;7.61;62.40;96743.16;6323430;28;19920;-64
2022/03/31 10:36:00;;;;;;;;;;;;;;;7.55;62.74;96739.09;6323754;28;19920;-64
2022/03/31 10:39:07;;;;;;;;;;;;;;;7.51;62.77;96732.34;6324415;28;19919;-65
2022/03/31 10:42:08;;;;;;;;;;;;;;;7.51;63.12;96736.75;6323657;28;20015;-65
2022/03/31 10:45:13;;;;;;;;;;;;;;;7.65;62.79;96727.19;6322885;28;19920;-64
2022/03/31 10:48:32;;;;;;;;;;;;;;;8.02;61.61;96721.66;6323889;28;19920;-64
2022/03/31 10:51:43;;;;;;;;;;;;;;;8.43;60.24;96729.78;6323358;28;19920;-64
2022/03/31 10:54:47;;;;;;;;;;;;;;;8.59;59.17;96721.03;6323381;28;20413;-63
2022/03/31 10:57:48;;;;;;;;;;;;;;;8.81;59.10;96710.94;6323031;28;19920;-64
2022/03/31 11:00:54;;;;;;;;;;;;;;;9.49;56.48;96719.91;6323500;28;19977;-64
2022/03/31 11:03:59;;;;;;;;;;;;;;;9.87;54.82;96706.94;6323534;28;19920;-65
2022/03/31 11:07:01;;;;;;;;;;;;;;;9.94;53.88;96720.53;6323105;28;19920;-66
2022/03/31 11:10:13;;;;;;;;;;;;;;;9.76;53.88;96699.72;6323157;28;19920;-64
2022/03/31 11:13:18;;;;;;;;;;;;;;;9.67;54.04;96716.09;6322772;28;20073;-64
2022/03/31 11:16:22;;;;;;;;;;;;;;;9.58;54.14;96711.44;6321872;28;19927;-64
2022/03/31 11:19:23;;;;;;;;;;;;;;;9.75;53.71;96719.09;6322609;28;19926;-65
2022/03/31 11:22:27;;;;;;;;;;;;;;;9.41;54.36;96715.97;6323196;28;19920;-65
2022/03/31 11:25:31;;;;;;;;;;;;;;;9.28;54.60;96711.56;6322724;28;20395;-65
2022/03/31 11:28:34;;;;;;;;;;;;;;;8.97;55.52;96706.44;6323077;28;19924;-65
2022/03/31 11:31:35;;;;;;;;;;;;;;;8.69;56.72;96727.38;6321595;28;20327;-63
2022/03/31 11:34:38;;;;;;;;;;;;;;;8.68;57.09;96733.56;6322702;28;20028;-65
2022/03/31 11:37:57;;;;;;;;;;;;;;;8.68;56.74;96721.31;6322483;28;19920;-64
2022/03/31 11:41:00;;;;;;;;;;;;;;;8.24;58.13;96726.53;6322479;28;19927;-64
2022/03/31 11:44:07;;;;;;;;;;;;;;;8.06;58.58;96733.66;6321772;28;19920;-65
2022/03/31 11:47:17;;;;;;;;;;;;;;;8.12;58.62;96722.81;6322256;28;19920;-64
2022/03/31 11:50:19;;;;;;;;;;;;;;;8.15;58.10;96732.28;6321586;28;20100;-64
2022/03/31 11:53:32;;;;;;;;;;;;;;;7.91;58.96;96739.78;6321905;28;19927;-64
2022/03/31 11:56:34;;;;;;;;;;;;;;;7.70;59.33;96731.31;6321613;28;20381;-64
2022/03/31 11:59:37;;;;;;;;;;;;;;;7.60;60.09;96737.06;6321796;28;19920;-66
2022/03/31 12:02:41;;;;;;;;;;;;;;;7.64;59.71;96733.38;6321447;28;19927;-64
2022/03/31 12:05:53;;;;;;;;;;;;;;;7.61;60.24;96737.91;6320265;28;19920;-64
2022/03/31 12:08:58;;;;;;;;;;;;;;;7.72;59.56;96740.78;6321580;28;19920;-64
2022/03/31 12:12:02;;;;;;;;;;;;;;;7.61;59.81;96740.53;6319574;28;19992;-65
2022/03/31 12:15:04;;;;;;;;;;;;;;;7.55;60.25;96733.84;6319435;28;20328;-65
2022/03/31 12:18:14;;;;;;;;;;;;;;;7.70;59.45;96732.19;6321203;28;20404;-66
2022/03/31 12:21:18;;;;;;;;;;;;;;;7.65;59.63;96715.88;6321521;28;20365;-64
2022/03/31 12:24:19;;;;;;;;;;;;;;;7.43;60.38;96710.97;6319279;28;19927;-65
2022/03/31 12:27:24;;;;;;;;;;;;;;;7.80;59.54;96706.31;6321462;28;20026;-64
2022/03/31 12:30:48;;;;;;;;;;;;;;;7.80;59.42;96711.56;6321110;28;19939;-65
2022/03/31 12:33:53;;;;;;;;;;;;;;;7.97;58.71;96714.06;6310778;28;20348;-64
2022/03/31 12:36:54;;;;;;;;;;;;;;;8.19;58.24;96718.06;6321448;28;19927;-65
2022/03/31 12:39:56;;;;;;;;;;;;;;;8.26;58.27;96724.63;6321109;28;20389;-64
2022/03/31 12:43:00;;;;;;;;;;;;;;;8.44;57.03;96713.13;6321106;28;19919;-65
2022/03/31 12:46:14;;;;;;;;;;;;;;;8.44;57.70;96723.63;6320551;28;19981;-65
2022/03/31 12:49:16;;;;;;;;;;;;;;;8.70;56.50;96719.44;6320972;28;20306;-64
2022/03/31 12:52:18;;;;;;;;;;;;;;;8.65;56.66;96731.97;6320349;28;19923;-65
2022/03/31 12:55:28;;;;;;;;;;;;;;;8.64;56.83;96743.41;6321014;28;20457;-64
2022/03/31 12:58:35;;;;;;;;;;;;;;;8.59;56.76;96742.00;6320034;28;20389;-65
2022/03/31 13:01:38;;;;;;;;;;;;;;;8.44;57.55;96749.84;6320905;28;19916;-65
2022/03/31 13:04:43;;;;;;;;;;;;;;;8.57;56.78;96754.34;6320713;28;20302;-64
2022/03/31 13:07:49;;;;;;;;;;;;;;;8.24;57.72;96743.09;6320655;28;20371;-64
2022/03/31 13:10:52;;;;;;;;;;;;;;;8.04;58.30;96757.34;6319459;28;19920;-64
2022/03/31 13:13:53;;;;;;;;;;;;;;;7.91;58.55;96751.09;6319125;28;20347;-64
2022/03/31 13:17:00;;;;;;;;;;;;;;;7.30;60.33;96757.06;6325110;28;19955;-65
2022/03/31 13:20:01;;;;;;;;;;;;;;;7.14;61.09;96760.50;6325338;28;20385;-64
2022/03/31 13:23:08;;;;;;;;;;;;;;;6.85;62.10;96758.56;6325752;28;19923;-66
2022/03/31 13:26:11;;;;;;;;;;;;;;;7.08;61.68;96745.13;6325581;28;20069;-65
2022/03/31 13:29:20;;;;;;;;;;;;;;;6.88;62.53;96758.38;6325933;28;20030;-65
2022/03/31 13:32:28;;;;;;;;;;;;;;;6.77;63.17;96765.97;6325791;28;20397;-64
2022/03/31 13:35:29;;;;;;;;;;;;;;;7.03;63.01;96768.06;6325232;28;20286;-65
2022/03/31 13:38:31;;;;;;;;;;;;;;;7.09;62.83;96772.97;6323536;28;19928;-65
2022/03/31 13:41:34;;;;;;;;;;;;;;;7.11;62.43;96776.38;6325023;28;20011;-65
2022/03/31 13:44:36;;;;;;;;;;;;;;;7.13;62.41;96782.38;6324831;28;19966;-65
2022/03/31 13:47:38;;;;;;;;;;;;;;;7.22;62.66;96788.03;6325384;28;19938;-66
2022/03/31 13:50:42;;;;;;;;;;;;;;;7.07;62.92;96800.97;6324026;28;19924;-63
2022/03/31 13:53:45;;;;;;;;;;;;;;;7.10;63.39;96806.06;6325464;28;19919;-65
2022/03/31 13:56:49;;;;;;;;;;;;;;;7.04;63.10;96814.22;6325009;28;20421;-66
2022/03/31 14:03:16;;;;;;;;;;;;;;;7.04;62.92;96822.06;6325078;28;19926;-65
2022/03/31 14:06:20;;;;;;;;;;;;;;;6.90;63.42;96830.63;6324248;28;19920;-66
2022/03/31 14:09:23;;;;;;;;;;;;;;;6.97;63.66;96839.03;6324372;28;19927;-65
2022/03/31 14:12:24;;;;;;;;;;;;;;;7.14;63.11;96828.53;6324477;28;19927;-65
2022/03/31 14:15:27;;;;;;;;;;;;;;;7.02;63.46;96841.38;6324291;28;19920;-65
2022/03/31 14:18:32;;;;;;;;;;;;;;;7.19;62.92;96837.00;6324845;28;19920;-65
2022/03/31 14:21:35;;;;;;;;;;;;;;;7.25;62.56;96829.75;6324244;28;19920;-65
2022/03/31 14:24:36;;;;;;;;;;;;;;;7.18;62.85;96843.13;6324047;28;19930;-67
2022/03/31 14:27:37;;;;;;;;;;;;;;;7.08;63.08;96834.09;6322671;28;20412;-65
2022/03/31 14:30:42;;;;;;;;;;;;;;;6.91;63.69;96841.97;6324000;28;20397;-65
2022/03/31 14:33:44;;;;;;;;;;;;;;;7.14;63.06;96846.84;6324019;28;19920;-65
2022/03/31 14:36:48;;;;;;;;;;;;;;;6.98;63.26;96843.31;6323821;28;19927;-65
2022/03/31 14:39:51;;;;;;;;;;;;;;;7.17;63.28;96844.06;6323219;28;20396;-63
2022/03/31 14:42:54;;;;;;;;;;;;;;;6.94;63.25;96857.50;6323868;28;19919;-64
2022/03/31 14:45:55;;;;;;;;;;;;;;;7.18;63.04;96845.75;6323271;28;19919;-66
2022/03/31 14:48:56;;;;;;;;;;;;;;;6.91;63.70;96845.41;6323784;28;19966;-64
2022/03/31 14:51:57;;;;;;;;;;;;;;;6.73;64.16;96849.78;6323045;28;19920;-64
2022/03/31 14:55:01;;;;;;;;;;;;;;;6.74;64.22;96854.09;6323649;28;19920;-65
2022/03/31 14:58:07;;;;;;;;;;;;;;;6.79;64.13;96863.47;6323904;28;20002;-65
2022/03/31 15:01:13;;;;;;;;;;;;;;;6.72;64.43;96862.94;6323714;28;19920;-65
2022/03/31 15:04:19;;;;;;;;;;;;;;;6.57;64.62;96869.78;6322411;28;19974;-64
2022/03/31 15:07:26;;;;;;;;;;;;;;;6.41;65.26;96874.06;6323577;28;20424;-65
2022/03/31 15:17:14;;;;;;;;;;;;;;;5.75;67.10;96891.03;6323429;28;20010;-64
2022/03/31 15:20:18;;;;;;;;;;;;;;;5.63;67.43;96881.97;6323273;28;20401;-65
2022/03/31 15:23:21;;;;;;;;;;;;;;;5.76;67.17;96897.09;6322439;28;20413;-65
2022/03/31 15:26:25;;;;;;;;;;;;;;;5.56;67.83;96900.59;6322717;28;19920;-64
2022/03/31 15:29:26;;;;;;;;;;;;;;;5.48;68.00;96913.97;6322432;28;19934;-64
2022/03/31 15:32:29;;;;;;;;;;;;;;;5.30;68.84;96915.63;6322644;28;19920;-64
2022/03/31 15:35:33;;;;;;;;;;;;;;;5.56;67.84;96911.88;6321812;28;20404;-64
2022/03/31 15:38:36;;;;;;;;;;;;;;;5.52;67.85;96914.69;6322614;28;19927;-65
2022/03/31 15:41:37;;;;;;;;;;;;;;;5.59;67.66;96918.72;6322105;28;19920;-64
2022/03/31 15:44:42;;;;;;;;;;;;;;;5.69;67.45;96922.63;6322158;28;19926;-65
2022/03/31 15:47:44;;;;;;;;;;;;;;;5.56;68.12;96918.84;6321565;28;19960;-64
2022/03/31 15:50:45;;;;;;;;;;;;;;;5.51;68.36;96924.28;6322086;28;19927;-66
2022/03/31 15:53:46;;;;;;;;;;;;;;;5.51;67.93;96933.88;6321810;28;20389;-65
2022/03/31 15:56:47;;;;;;;;;;;;;;;5.39;67.91;96930.88;6321681;28;19930;-64
2022/03/31 15:59:52;;;;;;;;;;;;;;;5.67;67.14;96924.47;6322083;28;20389;-65
2022/03/31 16:02:53;;;;;;;;;;;;;;;5.70;67.21;96934.75;6321401;28;19927;-64
2022/03/31 16:05:54;;;;;;;;;;;;;;;5.76;67.02;96928.41;6321184;28;19920;-65
2022/03/31 16:08:55;;;;;;;;;;;;;;;5.66;67.23;96941.00;6321599;28;20454;-65
2022/03/31 16:11:57;;;;;;;;;;;;;;;5.58;66.98;96948.38;6321502;28;19916;-64
2022/03/31 16:14:58;;;;;;;;;;;;;;;5.36;68.12;96958.88;6321228;28;20305;-64
2022/03/31 16:18:02;;;;;;;;;;;;;;;5.34;67.88;96964.16;6321871;28;19920;-65
2022/03/31 16:21:07;;;;;;;;;;;;;;;5.04;68.89;96965.41;6321653;28;19916;-65
2022/03/31 16:24:10;;;;;;;;;;;;;;;5.21;68.39;96973.41;6321318;28;20425;-65
2022/03/31 16:27:12;;;;;;;;;;;;;;;5.10;68.59;96967.81;6320819;28;19927;-65